Aviation Digital Data Service (ADDS)

Output produced by TAFs form (1633 UTC 19 February 2017)
found at http://www.aviationweather.gov/adds/tafs/
 
KAPA 191553Z 15008KT 10SM FEW110 SCT150 BKN220 12/M05 A2971 RMK AO2 SLP029 T01221050
KAPA 191136Z 1912/2012 19011KT P6SM BKN200 
     FM191800 17020G30KT P6SM SCT120 BKN200 
     FM200100 23015G25KT P6SM VCSH SCT080 BKN120 BKN200 
     FM200300 32015G25KT P6SM VCSH SCT060 BKN080 
     FM200700 08008KT P6SM FEW080 BKN200